Time;durP1;ratioP1;P1;durP2;ratioP2;P2;SDS_P1;SDS_P2;PMS_P1;PMS_P2;Temp;Humidity;BMP_temperature;BMP_pressure;BME280_temperature;BME280_humidity;BME280_pressure;Samples;Min_cycle;Max_cycle;Signal;HPM_P1;HPM_P2
2022/08/30 00:01:32;;;;;;;6.03;2.80;;;;;;;;;;4883075;29;20192;-40
2022/08/30 00:03:59;;;;;;;2.90;2.60;;;;;;;;;;4883285;29;20570;-41
2022/08/30 00:06:26;;;;;;;4.23;2.37;;;;;;;;;;4887313;29;20223;-41
2022/08/30 00:08:52;;;;;;;3.53;2.80;;;;;;;;;;4884906;29;20184;-42
2022/08/30 00:11:20;;;;;;;2.80;2.57;;;;;;;;;;4885475;29;20219;-42
2022/08/30 00:13:48;;;;;;;3.80;2.37;;;;;;;;;;4884560;29;20618;-41
2022/08/30 00:16:14;;;;;;;5.93;2.70;;;;;;;;;;4888502;29;20184;-42
2022/08/30 00:18:41;;;;;;;4.40;2.70;;;;;;;;;;4888264;29;20244;-42
2022/08/30 00:21:08;;;;;;;5.30;2.90;;;;;;;;;;4888502;29;20185;-42
2022/08/30 00:23:34;;;;;;;3.23;2.60;;;;;;;;;;4881951;29;21193;-41
2022/08/30 00:26:01;;;;;;;3.00;2.70;;;;;;;;;;4885184;29;20267;-41
2022/08/30 00:28:27;;;;;;;3.43;2.60;;;;;;;;;;4890685;29;20184;-42
2022/08/30 00:30:54;;;;;;;4.93;2.60;;;;;;;;;;4887614;29;20216;-41
2022/08/30 00:33:21;;;;;;;3.10;2.57;;;;;;;;;;4884070;29;20188;-42
2022/08/30 00:35:47;;;;;;;3.53;2.40;;;;;;;;;;4883793;29;20972;-41
2022/08/30 00:38:13;;;;;;;4.60;2.70;;;;;;;;;;4889537;29;20716;-40
2022/08/30 00:40:42;;;;;;;4.40;2.53;;;;;;;;;;4887771;28;20203;-42
2022/08/30 00:43:11;;;;;;;2.50;2.30;;;;;;;;;;4885033;29;20575;-42
2022/08/30 00:45:37;;;;;;;3.20;2.67;;;;;;;;;;4888277;29;20671;-42
2022/08/30 00:48:04;;;;;;;3.67;2.50;;;;;;;;;;4885116;29;20500;-40
2022/08/30 00:50:52;;;;;;;2.70;2.37;;;;;;;;;;4889186;29;20200;-40
2022/08/30 00:53:21;;;;;;;3.53;3.03;;;;;;;;;;4886285;29;20349;-40
2022/08/30 00:55:48;;;;;;;3.63;2.60;;;;;;;;;;4883841;29;20664;-41
2022/08/30 00:58:20;;;;;;;3.80;3.10;;;;;;;;;;4889660;29;20803;-42
2022/08/30 01:00:46;;;;;;;2.93;2.63;;;;;;;;;;4887738;29;20194;-42
2022/08/30 01:03:12;;;;;;;2.73;2.50;;;;;;;;;;4883959;29;20197;-41
2022/08/30 01:05:39;;;;;;;3.23;2.80;;;;;;;;;;4886115;29;20593;-42
2022/08/30 01:08:05;;;;;;;4.23;2.50;;;;;;;;;;4885765;29;20596;-42
2022/08/30 01:10:33;;;;;;;5.13;2.57;;;;;;;;;;4886638;28;20204;-42
2022/08/30 01:12:59;;;;;;;4.27;2.90;;;;;;;;;;4888547;29;20180;-42
2022/08/30 01:15:25;;;;;;;4.60;2.70;;;;;;;;;;4885314;29;20821;-41
2022/08/30 01:17:51;;;;;;;4.20;2.63;;;;;;;;;;4884691;29;20287;-42
2022/08/30 01:20:20;;;;;;;3.27;2.63;;;;;;;;;;4885188;29;20278;-42
2022/08/30 01:22:49;;;;;;;4.93;2.80;;;;;;;;;;4885609;29;20426;-42
2022/08/30 01:25:20;;;;;;;3.57;2.70;;;;;;;;;;4884885;29;20713;-42
2022/08/30 01:27:54;;;;;;;2.87;2.63;;;;;;;;;;4885482;29;20188;-42
2022/08/30 01:30:22;;;;;;;5.17;2.70;;;;;;;;;;4886272;29;21314;-42
2022/08/30 01:32:51;;;;;;;5.27;2.93;;;;;;;;;;4889518;29;20198;-42
2022/08/30 01:35:19;;;;;;;4.37;2.83;;;;;;;;;;4885379;29;20180;-41
2022/08/30 01:37:45;;;;;;;3.43;2.73;;;;;;;;;;4883770;29;20187;-42
2022/08/30 01:40:12;;;;;;;3.03;2.77;;;;;;;;;;4882693;29;20258;-41
2022/08/30 01:42:39;;;;;;;3.13;2.73;;;;;;;;;;4885980;29;20350;-42
2022/08/30 01:45:06;;;;;;;2.93;2.70;;;;;;;;;;4888471;29;21183;-42
2022/08/30 01:47:32;;;;;;;4.10;2.83;;;;;;;;;;4890297;29;20429;-41
2022/08/30 01:49:58;;;;;;;3.90;2.80;;;;;;;;;;4882550;29;20614;-42
2022/08/30 01:52:24;;;;;;;3.87;2.77;;;;;;;;;;4884715;29;20195;-42
2022/08/30 01:54:51;;;;;;;4.73;2.73;;;;;;;;;;4884811;29;20819;-41
2022/08/30 01:57:19;;;;;;;3.70;2.63;;;;;;;;;;4887008;29;20218;-41
2022/08/30 01:59:48;;;;;;;5.03;3.10;;;;;;;;;;4887530;29;21114;-42
2022/08/30 02:02:15;;;;;;;2.73;2.50;;;;;;;;;;4882242;29;20309;-42
2022/08/30 02:04:42;;;;;;;2.80;2.50;;;;;;;;;;4883801;29;20839;-42
2022/08/30 02:07:09;;;;;;;4.63;2.70;;;;;;;;;;4882009;29;20455;-41
2022/08/30 02:09:36;;;;;;;4.67;2.90;;;;;;;;;;4885812;29;20180;-41
2022/08/30 02:12:03;;;;;;;4.50;2.70;;;;;;;;;;4887835;29;20422;-41
2022/08/30 02:14:30;;;;;;;3.97;2.73;;;;;;;;;;4885242;29;20184;-42
2022/08/30 02:16:56;;;;;;;3.13;2.57;;;;;;;;;;4883125;29;20633;-40
2022/08/30 02:19:22;;;;;;;3.73;2.93;;;;;;;;;;4885834;29;20865;-41
2022/08/30 02:21:48;;;;;;;4.70;2.80;;;;;;;;;;4885555;29;20184;-42
2022/08/30 02:24:14;;;;;;;6.67;3.07;;;;;;;;;;4899375;28;21122;-42
2022/08/30 02:26:41;;;;;;;4.93;3.20;;;;;;;;;;4885833;29;20649;-41
2022/08/30 02:29:07;;;;;;;4.37;2.57;;;;;;;;;;4884972;29;20188;-42
2022/08/30 02:31:34;;;;;;;4.23;3.20;;;;;;;;;;4887019;29;20759;-41
2022/08/30 02:34:00;;;;;;;4.87;3.13;;;;;;;;;;4886703;29;20195;-41
2022/08/30 02:36:26;;;;;;;4.73;3.10;;;;;;;;;;4884069;29;20231;-43
2022/08/30 02:38:52;;;;;;;3.57;2.93;;;;;;;;;;4883691;29;20211;-43
2022/08/30 02:41:19;;;;;;;3.50;2.80;;;;;;;;;;4887133;29;21279;-42
2022/08/30 02:43:45;;;;;;;4.23;3.20;;;;;;;;;;4886008;29;20188;-42
2022/08/30 02:46:11;;;;;;;4.13;2.53;;;;;;;;;;4886326;29;20187;-43
2022/08/30 02:48:37;;;;;;;3.67;3.03;;;;;;;;;;4884025;29;20411;-41
2022/08/30 02:51:05;;;;;;;5.37;2.80;;;;;;;;;;4884495;29;20207;-43
2022/08/30 02:53:31;;;;;;;3.03;2.73;;;;;;;;;;4886146;29;20554;-43
2022/08/30 02:55:57;;;;;;;4.30;3.17;;;;;;;;;;4887175;28;20691;-43
2022/08/30 02:58:24;;;;;;;4.20;3.00;;;;;;;;;;4884923;29;20181;-42
2022/08/30 03:00:50;;;;;;;4.53;3.07;;;;;;;;;;4881200;29;20590;-43
2022/08/30 03:03:16;;;;;;;5.87;3.10;;;;;;;;;;4882041;29;20180;-42
2022/08/30 03:05:42;;;;;;;6.50;3.60;;;;;;;;;;4900377;28;20187;-43
2022/08/30 03:08:08;;;;;;;4.00;3.10;;;;;;;;;;4886777;29;20256;-41
2022/08/30 03:10:35;;;;;;;4.67;3.30;;;;;;;;;;4886378;29;20223;-43
2022/08/30 03:13:02;;;;;;;4.57;3.23;;;;;;;;;;4884513;28;20184;-43
2022/08/30 03:15:28;;;;;;;4.33;2.83;;;;;;;;;;4885591;29;21022;-42
2022/08/30 03:17:55;;;;;;;6.33;3.80;;;;;;;;;;4890686;29;21168;-42
2022/08/30 03:20:23;;;;;;;7.43;3.60;;;;;;;;;;4882373;29;22187;-42
2022/08/30 03:22:50;;;;;;;3.50;3.20;;;;;;;;;;4896076;28;20371;-43
2022/08/30 03:25:16;;;;;;;5.43;3.57;;;;;;;;;;4887514;29;20524;-42
2022/08/30 03:27:42;;;;;;;5.53;3.87;;;;;;;;;;4887130;29;20917;-43
2022/08/30 03:30:09;;;;;;;4.37;3.57;;;;;;;;;;4884169;29;20353;-42
2022/08/30 03:32:35;;;;;;;5.60;3.53;;;;;;;;;;4885707;29;20295;-43
2022/08/30 03:35:01;;;;;;;3.90;3.17;;;;;;;;;;4885963;28;20618;-41
2022/08/30 03:37:28;;;;;;;4.80;3.50;;;;;;;;;;4888430;29;20786;-43
2022/08/30 03:39:54;;;;;;;8.53;3.83;;;;;;;;;;4884160;29;20762;-42
2022/08/30 03:42:20;;;;;;;4.57;3.60;;;;;;;;;;4884314;29;20413;-41
2022/08/30 03:44:47;;;;;;;3.60;3.30;;;;;;;;;;4884490;29;20188;-42
2022/08/30 03:47:13;;;;;;;6.80;3.43;;;;;;;;;;4888723;29;20369;-43
2022/08/30 03:49:39;;;;;;;6.63;4.00;;;;;;;;;;4881905;29;21022;-41
2022/08/30 03:52:05;;;;;;;8.27;3.60;;;;;;;;;;4887571;29;20232;-42
2022/08/30 03:54:31;;;;;;;3.93;3.33;;;;;;;;;;4885378;28;20451;-42
2022/08/30 03:56:57;;;;;;;4.00;3.20;;;;;;;;;;4903618;28;20682;-43
2022/08/30 03:59:23;;;;;;;8.90;4.17;;;;;;;;;;4886309;29;20184;-42
2022/08/30 04:01:50;;;;;;;3.90;3.50;;;;;;;;;;4885384;28;20192;-41
2022/08/30 04:04:16;;;;;;;4.47;3.20;;;;;;;;;;4886167;28;20289;-42
2022/08/30 04:06:42;;;;;;;16.10;4.53;;;;;;;;;;4890925;29;20351;-41
2022/08/30 04:09:09;;;;;;;8.40;4.20;;;;;;;;;;4888852;29;20615;-41
2022/08/30 04:11:35;;;;;;;13.37;4.33;;;;;;;;;;4883340;29;20525;-42
2022/08/30 04:14:01;;;;;;;5.30;3.20;;;;;;;;;;4883739;29;20185;-43
2022/08/30 04:16:27;;;;;;;4.20;3.20;;;;;;;;;;4885740;29;20180;-42
2022/08/30 04:18:53;;;;;;;4.27;3.40;;;;;;;;;;4883901;29;20188;-43
2022/08/30 04:21:19;;;;;;;13.63;4.80;;;;;;;;;;4882524;29;20188;-43
2022/08/30 04:23:46;;;;;;;10.83;3.97;;;;;;;;;;4883764;29;20227;-43
2022/08/30 04:26:12;;;;;;;5.57;3.73;;;;;;;;;;4894007;28;20279;-43
2022/08/30 04:28:38;;;;;;;5.77;3.77;;;;;;;;;;4875396;29;20670;-43
2022/08/30 04:31:09;;;;;;;5.37;4.10;;;;;;;;;;4883164;29;20212;-42
2022/08/30 04:33:35;;;;;;;6.07;3.70;;;;;;;;;;4882637;29;20530;-43
2022/08/30 04:36:04;;;;;;;5.03;3.80;;;;;;;;;;4884033;29;20195;-43
2022/08/30 04:38:30;;;;;;;5.03;3.50;;;;;;;;;;4884813;28;20279;-40
2022/08/30 04:40:56;;;;;;;8.30;3.77;;;;;;;;;;4886871;29;20211;-43
2022/08/30 04:43:25;;;;;;;4.17;3.70;;;;;;;;;;4884254;29;21003;-41
2022/08/30 04:45:52;;;;;;;5.07;3.83;;;;;;;;;;4885894;29;20184;-42
2022/08/30 04:48:18;;;;;;;5.10;3.70;;;;;;;;;;4887223;28;20224;-43
2022/08/30 04:50:45;;;;;;;4.37;3.50;;;;;;;;;;4886635;29;21039;-43
2022/08/30 04:53:12;;;;;;;7.50;3.87;;;;;;;;;;4886652;29;20176;-43
2022/08/30 04:55:39;;;;;;;4.57;4.10;;;;;;;;;;4886054;29;20468;-42
2022/08/30 04:58:05;;;;;;;6.40;4.20;;;;;;;;;;4887656;29;20397;-43
2022/08/30 05:00:32;;;;;;;4.43;4.03;;;;;;;;;;4886437;29;20562;-42
2022/08/30 05:02:58;;;;;;;6.87;4.30;;;;;;;;;;4895756;28;20582;-43
2022/08/30 05:05:40;;;;;;;7.77;5.00;;;;;;;;;;4884671;29;20184;-43
2022/08/30 05:08:16;;;;;;;7.80;5.23;;;;;;;;;;4886132;28;20189;-43
2022/08/30 05:10:44;;;;;;;6.00;4.87;;;;;;;;;;4887337;29;20196;-42
2022/08/30 05:13:10;;;;;;;6.53;4.80;;;;;;;;;;4886845;29;20188;-43
2022/08/30 05:15:38;;;;;;;6.13;4.73;;;;;;;;;;4886150;29;20243;-42
2022/08/30 05:18:06;;;;;;;6.57;4.80;;;;;;;;;;4885356;29;20641;-40
2022/08/30 05:20:32;;;;;;;6.40;5.57;;;;;;;;;;4883622;29;20196;-40
2022/08/30 05:22:58;;;;;;;5.90;5.27;;;;;;;;;;4881966;29;20192;-41
2022/08/30 05:25:27;;;;;;;8.63;5.43;;;;;;;;;;4879217;29;20292;-41
2022/08/30 05:27:53;;;;;;;8.50;5.50;;;;;;;;;;4883742;29;20188;-40
2022/08/30 05:30:20;;;;;;;6.43;5.17;;;;;;;;;;4883586;29;20579;-41
2022/08/30 05:32:46;;;;;;;8.83;5.23;;;;;;;;;;4886013;29;20176;-41
2022/08/30 05:35:13;;;;;;;7.83;5.03;;;;;;;;;;4886154;28;20184;-41
2022/08/30 05:37:39;;;;;;;7.63;5.07;;;;;;;;;;4884157;29;20228;-41
2022/08/30 05:40:06;;;;;;;8.67;6.33;;;;;;;;;;4886926;29;20711;-40
2022/08/30 05:42:33;;;;;;;13.10;6.27;;;;;;;;;;4885768;29;20212;-44
2022/08/30 05:44:59;;;;;;;11.20;6.77;;;;;;;;;;4887593;29;20736;-43
2022/08/30 05:47:25;;;;;;;9.33;6.60;;;;;;;;;;4890676;29;20276;-40
2022/08/30 05:49:51;;;;;;;7.07;6.23;;;;;;;;;;4888050;29;20876;-40
2022/08/30 05:52:17;;;;;;;9.17;7.00;;;;;;;;;;4887087;29;20208;-41
2022/08/30 05:54:44;;;;;;;8.13;6.33;;;;;;;;;;4888497;29;20451;-39
2022/08/30 05:57:10;;;;;;;7.23;5.83;;;;;;;;;;4891389;29;20242;-41
2022/08/30 05:59:36;;;;;;;11.17;7.07;;;;;;;;;;4887468;29;20355;-41
2022/08/30 06:02:04;;;;;;;12.10;7.00;;;;;;;;;;4887592;29;21763;-41
2022/08/30 06:04:30;;;;;;;9.53;7.87;;;;;;;;;;4895916;29;20602;-41
2022/08/30 06:06:56;;;;;;;15.83;10.73;;;;;;;;;;4899843;29;20756;-41
2022/08/30 06:09:22;;;;;;;12.00;9.67;;;;;;;;;;4896207;29;20420;-42
2022/08/30 06:11:49;;;;;;;12.87;9.80;;;;;;;;;;4897993;29;20208;-41
2022/08/30 06:14:15;;;;;;;16.47;10.60;;;;;;;;;;4897998;29;20187;-40
2022/08/30 06:16:44;;;;;;;15.80;11.90;;;;;;;;;;4896938;28;21277;-42
2022/08/30 06:19:10;;;;;;;19.60;13.30;;;;;;;;;;4891749;29;20180;-42
2022/08/30 06:21:38;;;;;;;14.73;11.90;;;;;;;;;;4898326;29;20180;-41
2022/08/30 06:24:05;;;;;;;13.70;12.17;;;;;;;;;;4897638;29;20259;-41
2022/08/30 06:26:31;;;;;;;14.13;11.30;;;;;;;;;;4897983;29;20604;-39
2022/08/30 06:28:58;;;;;;;18.23;11.90;;;;;;;;;;4896632;29;20279;-41
2022/08/30 06:31:25;;;;;;;19.33;12.30;;;;;;;;;;4890560;29;20199;-42
2022/08/30 06:33:51;;;;;;;15.60;11.13;;;;;;;;;;4893884;29;21034;-41
2022/08/30 06:36:20;;;;;;;13.60;11.53;;;;;;;;;;4897360;29;20216;-42
2022/08/30 06:38:46;;;;;;;18.17;11.03;;;;;;;;;;4896255;29;20179;-41
2022/08/30 06:41:14;;;;;;;15.13;10.80;;;;;;;;;;4895190;28;20644;-40
2022/08/30 06:43:40;;;;;;;16.43;11.00;;;;;;;;;;4896993;29;20274;-41
2022/08/30 06:46:08;;;;;;;12.67;9.93;;;;;;;;;;4897337;29;20175;-41
2022/08/30 06:48:34;;;;;;;14.70;10.47;;;;;;;;;;4895676;29;20265;-41
2022/08/30 06:51:00;;;;;;;13.60;9.93;;;;;;;;;;4888990;29;20223;-41
2022/08/30 06:53:30;;;;;;;17.90;11.23;;;;;;;;;;4888001;29;20181;-42
2022/08/30 06:55:57;;;;;;;12.63;10.00;;;;;;;;;;4888298;29;20262;-42
2022/08/30 06:58:23;;;;;;;14.30;10.10;;;;;;;;;;4890848;29;20207;-40
2022/08/30 07:00:49;;;;;;;15.23;10.43;;;;;;;;;;4887759;29;20633;-39
2022/08/30 07:03:15;;;;;;;13.00;9.13;;;;;;;;;;4892403;29;20307;-42
2022/08/30 07:05:41;;;;;;;13.07;10.30;;;;;;;;;;4897513;29;20198;-41
2022/08/30 07:08:07;;;;;;;11.87;9.53;;;;;;;;;;4897592;29;20180;-41
2022/08/30 07:10:33;;;;;;;14.77;10.13;;;;;;;;;;4898074;29;20254;-42
2022/08/30 07:12:59;;;;;;;13.93;10.13;;;;;;;;;;4896547;29;20179;-41
2022/08/30 07:15:25;;;;;;;14.07;10.33;;;;;;;;;;4896846;29;20909;-40
2022/08/30 07:20:39;;;;;;;13.80;9.73;;;;;;;;;;4897825;29;20186;-41
2022/08/30 07:23:05;;;;;;;11.00;9.07;;;;;;;;;;4890488;28;20192;-42
2022/08/30 07:25:32;;;;;;;9.00;7.50;;;;;;;;;;4892073;29;20180;-41
2022/08/30 07:27:58;;;;;;;9.47;8.47;;;;;;;;;;4899688;29;20526;-42
2022/08/30 07:30:24;;;;;;;11.43;7.80;;;;;;;;;;4898329;29;20526;-42
2022/08/30 07:32:50;;;;;;;10.60;8.53;;;;;;;;;;4899282;29;20180;-41
2022/08/30 07:35:16;;;;;;;11.17;8.87;;;;;;;;;;4898580;29;20490;-42
2022/08/30 07:37:42;;;;;;;10.97;8.80;;;;;;;;;;4900488;29;20259;-44
2022/08/30 07:40:09;;;;;;;11.33;8.37;;;;;;;;;;4899520;29;20215;-42
2022/08/30 07:42:35;;;;;;;12.03;8.37;;;;;;;;;;4900679;29;20727;-41
2022/08/30 07:45:02;;;;;;;11.93;9.90;;;;;;;;;;4900833;29;20188;-42
2022/08/30 07:47:28;;;;;;;9.07;8.10;;;;;;;;;;4900909;29;21031;-43
2022/08/30 07:49:54;;;;;;;9.00;8.10;;;;;;;;;;4899226;29;20295;-43
2022/08/30 07:52:22;;;;;;;9.17;7.77;;;;;;;;;;4896614;29;20192;-42
2022/08/30 07:54:48;;;;;;;11.27;9.10;;;;;;;;;;4904063;29;20172;-42
2022/08/30 07:57:14;;;;;;;15.20;11.83;;;;;;;;;;4901077;29;20483;-44
2022/08/30 07:59:40;;;;;;;14.87;11.17;;;;;;;;;;4900238;29;20172;-44
2022/08/30 08:02:07;;;;;;;12.93;10.40;;;;;;;;;;4898408;29;20569;-43
2022/08/30 08:04:34;;;;;;;13.57;10.97;;;;;;;;;;4902440;29;20545;-41
2022/08/30 08:07:01;;;;;;;10.60;8.83;;;;;;;;;;4901531;29;20452;-41
2022/08/30 08:09:27;;;;;;;17.43;10.57;;;;;;;;;;4898681;29;20297;-43
2022/08/30 08:11:53;;;;;;;17.93;12.23;;;;;;;;;;4898208;29;20208;-42
2022/08/30 08:14:20;;;;;;;14.23;10.27;;;;;;;;;;4900976;29;20176;-41
2022/08/30 08:16:47;;;;;;;10.80;8.97;;;;;;;;;;4902399;29;20184;-40
2022/08/30 08:19:13;;;;;;;11.47;8.60;;;;;;;;;;4897835;29;20726;-41
2022/08/30 08:21:39;;;;;;;11.30;8.87;;;;;;;;;;4899257;29;20187;-41
2022/08/30 08:24:06;;;;;;;16.87;9.70;;;;;;;;;;4898737;29;20737;-42
2022/08/30 08:26:33;;;;;;;11.30;9.40;;;;;;;;;;4899240;29;20522;-41
2022/08/30 08:28:59;;;;;;;14.67;10.00;;;;;;;;;;4901584;29;20180;-41
2022/08/30 08:31:27;;;;;;;10.87;9.37;;;;;;;;;;4898594;29;20470;-42
2022/08/30 08:33:53;;;;;;;13.97;10.60;;;;;;;;;;4898534;29;20550;-43
2022/08/30 08:36:19;;;;;;;12.73;10.37;;;;;;;;;;4896947;29;20176;-43
2022/08/30 08:38:46;;;;;;;13.93;8.77;;;;;;;;;;4900353;29;20242;-42
2022/08/30 08:41:31;;;;;;;14.90;10.83;;;;;;;;;;4901417;29;20176;-42
2022/08/30 08:43:57;;;;;;;12.03;10.63;;;;;;;;;;4901251;29;20176;-42
2022/08/30 08:46:30;;;;;;;11.70;7.97;;;;;;;;;;4900021;29;20192;-41
2022/08/30 08:48:57;;;;;;;9.30;7.90;;;;;;;;;;4899699;29;20263;-41
2022/08/30 08:54:13;;;;;;;9.10;8.23;;;;;;;;;;4900014;29;20250;-42
2022/08/30 08:56:39;;;;;;;8.70;7.50;;;;;;;;;;4896639;29;20172;-42
2022/08/30 08:59:07;;;;;;;10.37;9.33;;;;;;;;;;4898776;29;20627;-43
2022/08/30 09:01:33;;;;;;;9.67;7.27;;;;;;;;;;4897176;29;20196;-43
2022/08/30 09:04:02;;;;;;;8.77;6.90;;;;;;;;;;4896994;29;21048;-43
2022/08/30 09:06:47;;;;;;;9.83;7.43;;;;;;;;;;4897015;29;20180;-43
2022/08/30 09:09:14;;;;;;;11.77;7.53;;;;;;;;;;4897872;29;20672;-43
2022/08/30 09:11:41;;;;;;;13.33;7.27;;;;;;;;;;4900711;29;20295;-42
2022/08/30 09:14:12;;;;;;;7.93;6.77;;;;;;;;;;4898660;29;20180;-43
2022/08/30 09:16:59;;;;;;;14.10;8.87;;;;;;;;;;4897875;29;20799;-43
2022/08/30 09:19:39;;;;;;;10.43;7.17;;;;;;;;;;4898275;29;20339;-43
2022/08/30 09:22:14;;;;;;;10.70;7.20;;;;;;;;;;4902020;28;20187;-43
2022/08/30 09:24:42;;;;;;;12.13;7.00;;;;;;;;;;4899313;29;20512;-42
2022/08/30 09:27:20;;;;;;;11.20;6.07;;;;;;;;;;4900918;28;20721;-44
2022/08/30 09:29:50;;;;;;;9.40;5.87;;;;;;;;;;4902456;29;20175;-41
2022/08/30 09:32:26;;;;;;;8.73;6.30;;;;;;;;;;4899198;28;20208;-42
2022/08/30 09:34:52;;;;;;;11.33;6.10;;;;;;;;;;4898113;29;20543;-42
2022/08/30 09:37:30;;;;;;;9.57;5.90;;;;;;;;;;4898434;29;20180;-43
2022/08/30 09:39:56;;;;;;;10.27;5.20;;;;;;;;;;4900562;29;20700;-43
2022/08/30 09:42:24;;;;;;;6.67;5.23;;;;;;;;;;4900706;29;20180;-43
2022/08/30 09:44:51;;;;;;;11.90;5.50;;;;;;;;;;4898228;28;20463;-43
2022/08/30 09:47:38;;;;;;;8.73;5.83;;;;;;;;;;4896704;29;20180;-43
2022/08/30 09:50:15;;;;;;;8.77;5.93;;;;;;;;;;4898297;29;20262;-42
2022/08/30 09:52:45;;;;;;;8.57;5.87;;;;;;;;;;4899511;29;20608;-43
2022/08/30 09:55:14;;;;;;;7.13;5.07;;;;;;;;;;4898922;29;20782;-42
2022/08/30 09:57:56;;;;;;;8.57;5.70;;;;;;;;;;4896585;29;20184;-43
2022/08/30 10:00:23;;;;;;;8.43;5.03;;;;;;;;;;4897594;29;20779;-43
2022/08/30 10:03:01;;;;;;;6.13;4.73;;;;;;;;;;4897471;29;20184;-43
2022/08/30 10:05:46;;;;;;;7.23;5.23;;;;;;;;;;4895179;29;20707;-41
2022/08/30 10:08:12;;;;;;;7.90;5.07;;;;;;;;;;4896510;29;20712;-41
2022/08/30 10:10:39;;;;;;;7.33;5.10;;;;;;;;;;4899801;29;20402;-42
2022/08/30 10:13:05;;;;;;;6.80;4.90;;;;;;;;;;4899546;29;20428;-43
2022/08/30 10:15:34;;;;;;;10.07;5.97;;;;;;;;;;4898240;29;20184;-42
2022/08/30 10:18:03;;;;;;;7.13;5.97;;;;;;;;;;4894635;29;20362;-43
2022/08/30 10:20:32;;;;;;;10.57;5.67;;;;;;;;;;4898400;29;20228;-43
2022/08/30 10:23:06;;;;;;;8.80;6.23;;;;;;;;;;4900899;29;20556;-43
2022/08/30 10:25:39;;;;;;;9.37;6.27;;;;;;;;;;4898309;29;20257;-43
2022/08/30 10:28:25;;;;;;;12.77;6.40;;;;;;;;;;4897732;29;20621;-43
2022/08/30 10:31:01;;;;;;;11.20;7.17;;;;;;;;;;4903471;28;20323;-43
2022/08/30 10:33:35;;;;;;;7.30;6.17;;;;;;;;;;4897713;29;20232;-41
2022/08/30 10:36:03;;;;;;;7.07;6.23;;;;;;;;;;4897099;29;20766;-42
2022/08/30 10:38:34;;;;;;;10.17;6.40;;;;;;;;;;4899569;29;20188;-43
2022/08/30 10:41:12;;;;;;;12.37;7.97;;;;;;;;;;4901098;29;20257;-43
2022/08/30 10:43:45;;;;;;;8.20;6.53;;;;;;;;;;4900394;29;20247;-44
2022/08/30 10:46:16;;;;;;;7.17;5.83;;;;;;;;;;4897863;29;20300;-43
2022/08/30 10:48:43;;;;;;;9.37;6.50;;;;;;;;;;4895258;29;20492;-43
2022/08/30 10:51:34;;;;;;;9.23;6.50;;;;;;;;;;4896014;29;20207;-43
2022/08/30 10:54:08;;;;;;;11.43;6.60;;;;;;;;;;4902364;29;20791;-43
2022/08/30 10:56:37;;;;;;;14.10;6.00;;;;;;;;;;4895014;29;20755;-43
2022/08/30 10:59:05;;;;;;;6.90;5.47;;;;;;;;;;4896303;29;20188;-42
2022/08/30 11:01:34;;;;;;;7.20;5.30;;;;;;;;;;4895018;29;20984;-43
2022/08/30 11:04:03;;;;;;;7.27;5.47;;;;;;;;;;4897110;29;22611;-43
2022/08/30 11:06:42;;;;;;;6.43;5.03;;;;;;;;;;4897713;29;20867;-43
2022/08/30 11:09:20;;;;;;;7.07;5.20;;;;;;;;;;4896676;29;20279;-43
2022/08/30 11:11:46;;;;;;;6.47;5.40;;;;;;;;;;4892964;29;20212;-43
2022/08/30 11:14:15;;;;;;;6.20;5.60;;;;;;;;;;4896005;29;20203;-43
2022/08/30 11:16:43;;;;;;;8.63;4.67;;;;;;;;;;4895876;29;20265;-43
2022/08/30 11:19:21;;;;;;;5.67;5.03;;;;;;;;;;4894614;29;20574;-43
2022/08/30 11:21:48;;;;;;;5.20;4.70;;;;;;;;;;4897712;29;20175;-43
2022/08/30 11:24:21;;;;;;;5.73;4.40;;;;;;;;;;4895806;29;20956;-43
2022/08/30 11:26:47;;;;;;;6.67;4.70;;;;;;;;;;4897993;29;20716;-43
2022/08/30 11:29:32;;;;;;;6.07;4.43;;;;;;;;;;4895370;29;21050;-43
2022/08/30 11:32:18;;;;;;;5.93;4.83;;;;;;;;;;4895493;29;20465;-43
2022/08/30 11:34:47;;;;;;;6.20;4.70;;;;;;;;;;4899955;29;20795;-42
2022/08/30 11:37:14;;;;;;;7.43;4.80;;;;;;;;;;4897647;29;20332;-42
2022/08/30 11:39:46;;;;;;;5.77;4.20;;;;;;;;;;4894804;29;20551;-43
2022/08/30 11:42:23;;;;;;;6.60;4.10;;;;;;;;;;4895003;29;20276;-43
2022/08/30 11:44:49;;;;;;;7.17;4.20;;;;;;;;;;4895295;29;20400;-43
2022/08/30 11:47:34;;;;;;;5.80;4.30;;;;;;;;;;4897562;29;20251;-43
2022/08/30 11:50:08;;;;;;;5.77;3.83;;;;;;;;;;4899000;29;20188;-43
2022/08/30 11:53:01;;;;;;;4.43;4.03;;;;;;;;;;4897511;29;20236;-43
2022/08/30 11:55:43;;;;;;;6.27;4.53;;;;;;;;;;4897074;28;20207;-44
2022/08/30 11:58:21;;;;;;;6.70;4.93;;;;;;;;;;4896434;29;20183;-43
2022/08/30 12:00:48;;;;;;;5.37;4.03;;;;;;;;;;4899121;29;20220;-43
2022/08/30 12:03:14;;;;;;;6.17;4.20;;;;;;;;;;4899405;29;20184;-43
2022/08/30 12:05:41;;;;;;;7.00;4.57;;;;;;;;;;4896029;29;20188;-42
2022/08/30 12:08:20;;;;;;;6.57;4.23;;;;;;;;;;4897703;29;21833;-42
2022/08/30 12:10:48;;;;;;;7.97;4.53;;;;;;;;;;4897441;29;20212;-43
2022/08/30 12:13:32;;;;;;;5.07;4.33;;;;;;;;;;4899880;29;20184;-42
2022/08/30 12:16:03;;;;;;;5.30;3.73;;;;;;;;;;4898303;29;20267;-43
2022/08/30 12:18:32;;;;;;;5.30;3.67;;;;;;;;;;4896123;29;20189;-43
2022/08/30 12:21:25;;;;;;;5.77;3.80;;;;;;;;;;4901610;29;20240;-43
2022/08/30 12:24:03;;;;;;;4.77;3.73;;;;;;;;;;4890737;28;20209;-43
2022/08/30 12:26:31;;;;;;;7.53;4.13;;;;;;;;;;4887915;29;20263;-43
2022/08/30 12:29:09;;;;;;;5.10;3.40;;;;;;;;;;4893459;29;20291;-43
2022/08/30 12:31:39;;;;;;;6.30;3.63;;;;;;;;;;4887833;29;21026;-43
2022/08/30 12:34:06;;;;;;;3.63;3.33;;;;;;;;;;4898355;29;20189;-43
2022/08/30 12:36:32;;;;;;;6.87;3.40;;;;;;;;;;4889900;29;20184;-43
2022/08/30 12:39:27;;;;;;;4.27;3.70;;;;;;;;;;4896038;29;20185;-43
2022/08/30 12:41:54;;;;;;;7.67;3.50;;;;;;;;;;4899457;28;20203;-43
2022/08/30 12:44:27;;;;;;;5.03;3.67;;;;;;;;;;4891255;29;20188;-43
2022/08/30 12:46:57;;;;;;;8.13;4.57;;;;;;;;;;4893613;29;20244;-43
2022/08/30 12:49:25;;;;;;;8.60;3.70;;;;;;;;;;4893668;29;20185;-44
2022/08/30 12:51:52;;;;;;;8.27;3.60;;;;;;;;;;4895217;29;20251;-43
2022/08/30 12:54:27;;;;;;;5.03;3.50;;;;;;;;;;4893857;29;20185;-44
2022/08/30 12:57:01;;;;;;;3.87;3.23;;;;;;;;;;4893818;29;20185;-43
2022/08/30 12:59:40;;;;;;;3.87;3.57;;;;;;;;;;4898889;29;20242;-43
2022/08/30 13:02:12;;;;;;;5.20;3.17;;;;;;;;;;4900194;29;20186;-43
2022/08/30 13:04:39;;;;;;;6.10;3.40;;;;;;;;;;4900166;29;20240;-43
2022/08/30 13:07:05;;;;;;;6.77;3.13;;;;;;;;;;4899041;29;20197;-43
2022/08/30 13:09:35;;;;;;;7.57;3.30;;;;;;;;;;4892664;29;20532;-43
2022/08/30 13:12:03;;;;;;;4.90;3.47;;;;;;;;;;4886828;29;20206;-44
2022/08/30 13:14:32;;;;;;;6.23;3.40;;;;;;;;;;4883816;29;20183;-43
2022/08/30 13:17:09;;;;;;;5.80;3.50;;;;;;;;;;4885388;29;20179;-43
2022/08/30 13:19:37;;;;;;;5.77;3.23;;;;;;;;;;4885678;29;21060;-43
2022/08/30 13:22:03;;;;;;;3.67;3.07;;;;;;;;;;4885313;29;21018;-43
2022/08/30 13:24:30;;;;;;;4.20;3.17;;;;;;;;;;4890245;29;20672;-43
2022/08/30 13:26:58;;;;;;;4.20;3.07;;;;;;;;;;4891423;29;21152;-44
2022/08/30 13:29:27;;;;;;;4.00;2.93;;;;;;;;;;4886173;29;20187;-43
2022/08/30 13:31:54;;;;;;;4.40;3.00;;;;;;;;;;4886763;29;20322;-42
2022/08/30 13:34:21;;;;;;;4.70;3.30;;;;;;;;;;4884818;29;21018;-43
2022/08/30 13:36:57;;;;;;;6.57;3.60;;;;;;;;;;4887858;29;20212;-41
2022/08/30 13:39:24;;;;;;;8.83;4.00;;;;;;;;;;4887559;29;20188;-43
2022/08/30 13:41:51;;;;;;;5.77;3.67;;;;;;;;;;4885107;29;20187;-43
2022/08/30 13:44:17;;;;;;;7.77;3.70;;;;;;;;;;4897302;29;20750;-43
2022/08/30 13:46:50;;;;;;;4.77;3.27;;;;;;;;;;4893271;29;20673;-43
2022/08/30 13:49:21;;;;;;;5.03;3.90;;;;;;;;;;4882070;29;20229;-42
2022/08/30 13:51:49;;;;;;;10.33;4.20;;;;;;;;;;4883353;29;21366;-43
2022/08/30 13:54:16;;;;;;;6.00;3.73;;;;;;;;;;4889331;29;20654;-42
2022/08/30 13:56:42;;;;;;;11.73;4.00;;;;;;;;;;4883816;29;20344;-43
2022/08/30 13:59:08;;;;;;;9.37;4.13;;;;;;;;;;4886480;29;21018;-43
2022/08/30 14:01:34;;;;;;;6.00;4.00;;;;;;;;;;4881341;29;20709;-43
2022/08/30 14:04:00;;;;;;;6.67;4.43;;;;;;;;;;4883450;29;20242;-43
2022/08/30 14:06:26;;;;;;;7.53;4.33;;;;;;;;;;4884525;29;20198;-43
2022/08/30 14:08:52;;;;;;;6.47;4.00;;;;;;;;;;4886166;29;20394;-43
2022/08/30 14:11:19;;;;;;;9.57;4.67;;;;;;;;;;4884662;29;20943;-42
2022/08/30 14:13:46;;;;;;;9.57;4.30;;;;;;;;;;4886890;29;20527;-42
2022/08/30 14:16:12;;;;;;;5.97;4.20;;;;;;;;;;4886999;28;20534;-43
2022/08/30 14:18:38;;;;;;;6.57;4.50;;;;;;;;;;4887418;29;20375;-43
2022/08/30 14:21:04;;;;;;;10.87;4.53;;;;;;;;;;4888017;29;20195;-43
2022/08/30 14:23:30;;;;;;;7.73;4.30;;;;;;;;;;4888115;29;21004;-43
2022/08/30 14:25:58;;;;;;;5.27;4.30;;;;;;;;;;4885568;29;21663;-43
2022/08/30 14:28:28;;;;;;;6.63;4.43;;;;;;;;;;4887224;29;20200;-43
2022/08/30 14:30:54;;;;;;;7.90;4.30;;;;;;;;;;4887198;29;20606;-43
2022/08/30 14:33:20;;;;;;;13.87;4.70;;;;;;;;;;4883752;29;20288;-43
2022/08/30 14:35:46;;;;;;;7.00;4.40;;;;;;;;;;4886376;28;20184;-42
2022/08/30 14:38:13;;;;;;;6.80;4.23;;;;;;;;;;4899645;28;20216;-42
2022/08/30 14:40:39;;;;;;;7.63;4.50;;;;;;;;;;4889144;29;20414;-43
2022/08/30 14:43:05;;;;;;;7.17;5.07;;;;;;;;;;4884705;29;21002;-43
2022/08/30 14:45:32;;;;;;;8.83;4.60;;;;;;;;;;4888598;29;20296;-43
2022/08/30 14:48:01;;;;;;;9.53;4.80;;;;;;;;;;4886103;29;20229;-43
2022/08/30 14:50:27;;;;;;;7.07;4.43;;;;;;;;;;4882278;29;20191;-43
2022/08/30 14:52:53;;;;;;;15.33;5.50;;;;;;;;;;4887373;29;20192;-43